Overview Statistics Trail Chart Weather Telemetry Raw packets
 

This is the latest recevied weather packets stored in our database for station/object 9M4GEK-3. If no packets are shown the sender has not sent any weather packets the latest 10 day(s).

<< 46 47 48 49 >>
Time Temp. Humidity Pressure Rain* Wind** Luminosity Snow
1787760435 28.89° C 62% 1012.3 hPa - - - -
1787759969 37.22° C 38% 1008.7 hPa - - - -
1787759535 28.33° C 62% 1012.4 hPa - - - -
1787758634 28.89° C 61% 1012.4 hPa - - - -
1787758602 37.22° C 38% 1008.7 hPa - - - -
1787757734 28.89° C 61% 1012.4 hPa - - - -
1787757526 38.33° C 36% 1008.5 hPa - - - -
1787756833 28.89° C 61% 1012.3 hPa - - - -
1787755933 28.89° C 61% 1012.4 hPa - - - -
1787755863 38.89° C 36% 1008.4 hPa - - - -
1787755033 28.89° C 61% 1012.1 hPa - - - -
1787754133 28.89° C 60% 1011.8 hPa - - - -
1787753233 28.89° C 60% 1011.6 hPa - - - -
1787752333 28.89° C 60% 1011.4 hPa - - - -
1787751433 28.89° C 61% 1010.9 hPa - - - -
1787750929 40° C 35% 1008.8 hPa - - - -
1787750532 28.89° C 60% 1010.3 hPa - - - -
1787749632 28.89° C 60% 1009.6 hPa - - - -
1787749188 39.44° C 36% 1008.8 hPa - - - -
1787748732 28.89° C 59% 1009.6 hPa - - - -
1787747988 40° C 36% 1008.9 hPa - - - -
1787747832 29.44° C 58% 1009.6 hPa - - - -

* Rain since midnight (hover to see other rain measurements)
** Current wind speed in m/s (hover to see current wind gust speed)